createdAt,value
2023-04-04T04:03:37.765Z,61.69
2023-04-04T04:06:04.803Z,61.32
2023-04-04T04:08:32.830Z,60.49
2023-04-04T04:11:05.140Z,61.20
2023-04-04T04:13:32.693Z,61.13
2023-04-04T04:16:01.775Z,60.98
2023-04-04T04:18:28.516Z,60.85
2023-04-04T04:20:59.101Z,60.63
2023-04-04T04:23:26.458Z,60.63
2023-04-04T04:25:53.273Z,61.11
2023-04-04T04:28:33.362Z,61.52
2023-04-04T04:31:10.522Z,60.92
2023-04-04T04:33:46.962Z,62.07
2023-04-04T04:36:13.611Z,61.63
2023-04-04T04:38:49.250Z,62.04
2023-04-04T04:41:16.362Z,61.10
2023-04-04T04:43:47.070Z,61.37
2023-04-04T04:46:14.897Z,60.80
2023-04-04T04:48:41.752Z,61.65
2023-04-04T04:51:13.541Z,60.96
2023-04-04T04:53:50.167Z,61.01
2023-04-04T04:56:16.710Z,61.25
2023-04-04T04:58:47.573Z,60.85
2023-04-04T05:01:20.840Z,61.25
2023-04-04T05:03:47.994Z,60.51
2023-04-04T05:06:19.822Z,61.50
2023-04-04T05:08:46.946Z,60.94
2023-04-04T05:11:23.334Z,61.38
2023-04-04T05:13:50.167Z,60.87
2023-04-04T05:16:17.908Z,60.91
2023-04-04T05:18:47.110Z,61.25
2023-04-04T05:21:16.195Z,61.02
2023-04-04T05:23:45.188Z,61.35
2023-04-04T05:26:13.424Z,61.49
2023-04-04T05:28:41.024Z,61.10
2023-04-04T05:31:07.593Z,60.36
2023-04-04T05:33:36.281Z,61.11
2023-04-04T05:36:17.477Z,60.51
2023-04-04T05:38:50.210Z,60.39
2023-04-04T05:41:19.645Z,60.65
2023-04-04T05:43:48.200Z,59.95
2023-04-04T05:46:17.978Z,59.85
2023-04-04T05:48:50.560Z,59.23
2023-04-04T05:51:17.524Z,58.95
2023-04-04T05:53:52.234Z,57.50
2023-04-04T05:56:24.908Z,57.26
2023-04-04T05:58:53.208Z,57.14
2023-04-04T08:46:11.613Z,36.33
2023-04-04T08:48:41.676Z,36.27
2023-04-04T08:51:10.154Z,35.10
2023-04-04T08:53:38.625Z,34.54
2023-04-04T08:56:05.572Z,35.08
2023-04-04T08:58:32.510Z,36.28
2023-04-04T09:00:59.079Z,34.53
2023-04-04T09:03:32.959Z,35.15
2023-04-04T09:05:59.677Z,37.01
2023-04-04T09:08:26.549Z,36.19
2023-04-04T09:10:53.626Z,35.40
2023-04-04T09:13:20.720Z,35.89
2023-04-04T09:15:49.320Z,36.38
2023-04-04T09:18:16.855Z,35.26
2023-04-04T09:20:47.487Z,35.52
2023-04-04T09:23:20.274Z,35.28
2023-04-04T09:28:24.271Z,33.42
2023-04-04T09:30:52.321Z,34.43
2023-04-04T09:33:21.735Z,35.00
2023-04-04T09:35:58.549Z,36.66
2023-04-04T09:38:29.465Z,35.83
2023-04-04T09:40:56.928Z,36.12
2023-04-04T09:43:24.998Z,34.71
2023-04-04T09:45:54.834Z,34.91
2023-04-04T09:48:36.868Z,35.34
2023-04-04T09:51:12.050Z,34.79
2023-04-04T09:53:41.578Z,34.69
2023-04-04T09:56:08.749Z,35.13
2023-04-04T09:58:36.653Z,35.03
2023-04-04T10:01:09.078Z,35.01
2023-04-04T10:03:38.114Z,34.45
2023-04-04T10:06:15.341Z,35.29
2023-04-04T10:08:43.726Z,35.99
2023-04-04T10:11:12.345Z,35.77
2023-04-04T10:13:46.889Z,35.55
2023-04-04T10:16:14.237Z,35.04
2023-04-04T10:18:40.918Z,34.47
2023-04-04T10:23:41.294Z,35.14
2023-04-04T10:26:07.841Z,35.06
2023-04-04T10:28:34.757Z,34.90
2023-04-04T10:31:22.346Z,34.54
2023-04-04T10:34:10.009Z,33.93
2023-04-04T10:36:44.547Z,34.41
2023-04-04T10:39:21.528Z,33.80
2023-04-04T10:41:51.597Z,32.25
2023-04-04T10:44:39.603Z,34.02
2023-04-04T10:47:15.675Z,34.03
2023-04-04T10:49:46.659Z,35.00
2023-04-04T10:52:16.859Z,35.58
2023-04-04T10:54:44.755Z,35.64
2023-04-04T10:57:14.132Z,34.57
2023-04-04T10:59:58.946Z,35.23
2023-04-04T11:03:01.637Z,33.55
2023-04-04T11:05:43.398Z,34.30
2023-04-04T11:08:13.947Z,32.75
2023-04-04T11:10:45.891Z,32.91
2023-04-04T11:13:17.043Z,33.26
2023-04-04T11:15:55.792Z,33.52
2023-04-04T11:18:43.647Z,33.58
2023-04-04T11:21:19.901Z,33.60
2023-04-04T11:23:49.591Z,33.16
2023-04-04T11:26:35.146Z,33.18
2023-04-04T11:29:08.015Z,34.14
2023-04-04T11:31:45.387Z,34.12
2023-04-04T11:34:13.786Z,35.30
2023-04-04T11:36:41.570Z,33.83
2023-04-04T11:39:10.420Z,34.03
2023-04-04T11:41:53.217Z,35.13
2023-04-04T11:44:24.216Z,33.43
2023-04-04T11:47:11.069Z,33.50
2023-04-04T11:49:42.651Z,34.31
2023-04-04T11:52:15.281Z,34.07
2023-04-04T11:54:43.741Z,34.05
2023-04-04T11:57:21.207Z,33.98
2023-04-04T11:59:49.743Z,34.08
2023-04-04T12:02:20.446Z,35.18
2023-04-04T12:04:48.063Z,34.56
2023-04-04T12:07:17.317Z,34.91
2023-04-04T12:09:44.506Z,34.27
2023-04-04T12:12:16.388Z,34.36
2023-04-04T12:14:43.648Z,34.15
2023-04-04T12:17:10.726Z,33.85
2023-04-04T12:19:38.972Z,34.38
2023-04-04T12:22:05.959Z,34.14
2023-04-04T12:24:33.113Z,35.05
2023-04-04T12:26:59.973Z,35.23
2023-04-04T12:29:28.364Z,35.56
2023-04-04T12:31:56.066Z,35.17
2023-04-04T12:34:24.665Z,35.47
2023-04-04T12:36:58.631Z,35.17
2023-04-04T12:39:29.466Z,35.02
2023-04-04T12:42:03.646Z,35.21
2023-04-04T12:44:32.708Z,34.66
2023-04-04T12:47:01.030Z,34.90
2023-04-04T12:49:30.265Z,34.71
2023-04-04T12:52:00.644Z,36.09
2023-04-04T12:54:29.053Z,35.78
2023-04-04T12:56:57.905Z,35.23
2023-04-04T12:59:29.779Z,35.96
2023-04-04T13:01:56.733Z,35.36
2023-04-04T13:04:24.737Z,35.07
2023-04-04T13:06:51.829Z,34.08
2023-04-04T13:09:23.452Z,33.76
2023-04-04T13:12:08.480Z,35.28
2023-04-04T13:15:04.998Z,35.54
2023-04-04T13:17:45.319Z,35.83
2023-04-04T13:20:13.555Z,36.36
2023-04-04T13:22:41.123Z,35.40
2023-04-04T13:25:09.089Z,35.39
2023-04-04T13:27:36.301Z,35.77
2023-04-04T13:30:04.227Z,35.16
2023-04-04T13:32:31.180Z,35.87
2023-04-04T13:34:57.893Z,35.73
2023-04-04T13:37:25.332Z,36.36
2023-04-04T13:39:51.866Z,35.11
2023-04-04T13:42:18.365Z,35.30
2023-04-04T13:44:45.096Z,35.52
2023-04-04T13:47:11.676Z,35.99
2023-04-04T13:49:38.177Z,35.18
2023-04-04T13:52:04.759Z,36.14
2023-04-04T13:54:31.330Z,35.82
2023-04-04T13:56:58.354Z,35.94
2023-04-04T13:59:24.968Z,35.69
2023-04-04T14:01:51.690Z,35.37
2023-04-04T14:04:23.793Z,35.56
2023-04-04T14:06:51.011Z,36.42
2023-04-04T14:09:17.595Z,36.54
2023-04-04T14:11:46.366Z,36.65
2023-04-04T14:14:12.924Z,35.97
2023-04-04T14:16:39.634Z,35.62
2023-04-04T14:19:06.972Z,35.99
2023-04-04T14:21:33.530Z,35.74
2023-04-04T14:24:00.195Z,35.55
2023-04-04T14:26:26.773Z,35.75
2023-04-04T14:28:53.278Z,36.40
2023-04-04T14:31:20.109Z,36.36
2023-04-04T14:33:46.737Z,35.56
2023-04-04T14:36:13.321Z,36.25
2023-04-04T14:38:39.878Z,35.21
2023-04-04T14:41:06.424Z,35.46
2023-04-04T14:43:32.908Z,35.85
2023-04-04T14:45:59.471Z,35.56
2023-04-04T14:48:26.164Z,36.00
2023-04-04T14:50:52.790Z,37.21
2023-04-04T14:53:19.365Z,37.18
2023-04-04T14:55:45.972Z,36.61
2023-04-04T14:58:13.183Z,36.33
2023-04-04T15:00:39.742Z,37.09
2023-04-04T15:03:08.199Z,36.85
2023-04-04T15:05:35.046Z,36.47
2023-04-04T15:08:01.611Z,36.89
2023-04-04T15:10:28.162Z,37.41
2023-04-04T15:12:55.337Z,38.17
2023-04-04T15:15:23.814Z,37.74
2023-04-04T15:17:51.468Z,35.67
2023-04-04T15:20:18.321Z,36.46
2023-04-04T15:22:44.928Z,36.92
2023-04-04T15:25:11.595Z,35.94
2023-04-04T15:27:38.265Z,36.61
2023-04-04T15:30:05.554Z,37.40
2023-04-04T15:32:32.159Z,36.95
2023-04-04T15:34:58.785Z,36.64
2023-04-04T15:37:25.853Z,37.66
2023-04-04T15:39:53.814Z,37.84
2023-04-04T15:42:21.202Z,37.91
2023-04-04T15:44:48.027Z,38.48
2023-04-04T15:47:16.509Z,37.63
2023-04-04T15:49:43.139Z,37.66
2023-04-04T15:52:09.894Z,37.66
2023-04-04T15:54:36.418Z,38.04
2023-04-04T15:57:03.020Z,38.34
2023-04-04T15:59:31.689Z,37.86
2023-04-04T16:01:58.541Z,37.50
2023-04-04T16:04:25.086Z,37.52
2023-04-04T16:06:51.590Z,38.04
2023-04-04T16:09:18.152Z,38.47
2023-04-04T16:11:44.796Z,37.75
2023-04-04T16:14:12.221Z,38.28
2023-04-04T16:16:40.546Z,38.14
2023-04-04T16:19:07.264Z,38.27
2023-04-04T16:21:34.193Z,38.18
2023-04-04T16:24:00.847Z,37.97
2023-04-04T16:26:27.443Z,38.21
2023-04-04T16:28:54.071Z,38.22
2023-04-04T16:31:20.749Z,37.75
2023-04-04T16:33:47.675Z,37.50
2023-04-04T16:36:14.269Z,37.08
2023-04-04T16:38:40.819Z,37.74
2023-04-04T16:41:07.346Z,37.30
2023-04-04T16:43:33.876Z,37.77
2023-04-04T16:46:00.395Z,37.81
2023-04-04T16:48:26.933Z,37.96
2023-04-04T16:50:54.603Z,38.35
2023-04-04T16:53:21.128Z,37.43
2023-04-04T16:55:47.665Z,37.85
2023-04-04T16:58:14.391Z,38.94
2023-04-04T17:00:43.392Z,38.07
2023-04-04T17:03:13.480Z,38.27
2023-04-04T17:05:39.977Z,38.35
2023-04-04T17:08:07.307Z,37.30
2023-04-04T17:10:34.507Z,38.06
2023-04-04T17:13:01.925Z,38.12
2023-04-04T17:15:28.607Z,37.72
2023-04-04T17:17:55.266Z,38.91
2023-04-04T17:20:21.865Z,38.33
2023-04-04T17:23:29.243Z,39.81
2023-04-04T17:25:55.966Z,38.48
2023-04-04T17:28:22.634Z,38.97
2023-04-04T17:30:49.490Z,39.52
2023-04-04T17:33:16.234Z,39.41
2023-04-04T17:35:42.777Z,38.58
2023-04-04T17:38:09.339Z,37.72
2023-04-04T17:40:36.514Z,40.97
2023-04-04T17:43:03.142Z,42.29
2023-04-04T17:45:29.729Z,39.74
2023-04-04T17:47:56.346Z,39.88
2023-04-04T17:50:23.021Z,38.72
2023-04-04T17:52:49.643Z,41.27
2023-04-04T17:55:17.842Z,41.43
2023-04-04T17:57:45.027Z,41.66
2023-04-04T18:00:12.757Z,43.12
2023-04-04T18:02:39.365Z,40.76
2023-04-04T18:05:06.872Z,40.23
2023-04-04T18:07:33.467Z,42.56
2023-04-04T18:10:00.531Z,43.82
2023-04-04T18:12:30.051Z,46.98
2023-04-04T18:14:56.689Z,46.41
2023-04-04T18:17:26.266Z,46.99
2023-04-04T18:19:54.747Z,47.64
2023-04-04T18:22:22.563Z,48.22
2023-04-04T18:24:49.183Z,48.52
2023-04-04T18:27:15.915Z,48.38
2023-04-04T18:29:43.054Z,48.94
2023-04-04T18:32:09.619Z,50.01
2023-04-04T18:34:36.216Z,50.80
2023-04-04T18:37:02.782Z,51.53
2023-04-04T18:39:29.452Z,51.79
2023-04-04T18:41:56.692Z,51.99
2023-04-04T18:44:23.382Z,52.56
2023-04-04T18:46:49.994Z,52.43
2023-04-04T18:49:16.551Z,52.10
2023-04-04T18:51:43.074Z,52.98
2023-04-04T18:54:09.598Z,53.26
2023-04-04T18:56:37.853Z,54.07
2023-04-04T18:59:05.403Z,52.71
2023-04-04T19:01:32.845Z,53.47
2023-04-04T19:04:03.308Z,53.85
2023-04-04T19:06:32.135Z,54.12
2023-04-04T19:09:03.736Z,56.09
2023-04-04T19:11:33.579Z,56.00
2023-04-04T19:14:00.261Z,55.63
2023-04-04T19:16:26.773Z,56.51
2023-04-04T19:18:53.285Z,56.95
2023-04-04T19:21:19.863Z,57.00
2023-04-04T19:23:47.346Z,56.53
2023-04-04T19:26:15.736Z,55.79
2023-04-04T19:28:46.117Z,55.72
2023-04-04T19:31:21.561Z,56.08
2023-04-04T19:33:50.547Z,57.28
2023-04-04T19:36:17.627Z,57.23
2023-04-04T19:38:48.667Z,57.55
2023-04-04T19:41:18.204Z,57.82
2023-04-04T19:43:47.034Z,58.04
2023-04-04T19:46:24.428Z,57.77
2023-04-04T19:48:58.033Z,57.62
2023-04-04T19:51:24.530Z,58.22
2023-04-04T19:53:53.470Z,58.22
2023-04-04T19:56:22.062Z,58.22
2023-04-04T19:58:54.313Z,57.81
2023-04-04T20:01:23.555Z,58.43
2023-04-04T20:03:50.356Z,59.90
2023-04-04T20:06:28.374Z,59.03
2023-04-04T20:08:56.973Z,60.09
2023-04-04T20:11:34.853Z,59.05
2023-04-04T20:14:05.031Z,59.36
2023-04-04T20:16:31.891Z,59.36
2023-04-04T20:19:00.570Z,59.89
2023-04-04T20:21:29.552Z,60.07
2023-04-04T20:23:58.393Z,60.01
2023-04-04T20:26:39.920Z,59.28
2023-04-04T20:29:15.406Z,59.33
2023-04-04T20:31:54.812Z,60.84
2023-04-04T20:34:36.315Z,60.20
2023-04-04T20:37:06.150Z,60.56
2023-04-04T20:39:48.031Z,60.86
2023-04-04T20:42:14.469Z,60.17
2023-04-04T20:44:41.073Z,60.14
2023-04-04T20:47:08.001Z,60.64
2023-04-04T20:49:34.522Z,61.28
2023-04-04T20:52:01.209Z,61.46
2023-04-04T20:54:27.776Z,61.17
2023-04-04T20:56:56.656Z,60.92
2023-04-04T20:59:37.763Z,60.79
